Time;durP1;ratioP1;P1;durP2;ratioP2;P2;SDS_P1;SDS_P2;PMS_P1;PMS_P2;Temp;Humidity;BMP_temperature;BMP_pressure;BME280_temperature;BME280_humidity;BME280_pressure;Samples;Min_cycle;Max_cycle;Signal;HPM_P1;HPM_P2
2023/11/14 00:00:31;;;;;;;16.00;4.60;;;11.50;99.90;;;;;;5058510;28;20877;-72
2023/11/14 00:02:57;;;;;;;14.33;4.20;;;11.50;99.90;;;;;;5057703;28;20446;-74
2023/11/14 00:05:22;;;;;;;10.83;3.40;;;11.40;99.90;;;;;;5057629;28;20216;-72
2023/11/14 00:07:49;;;;;;;18.30;4.90;;;11.40;99.90;;;;;;5058108;28;20711;-73
2023/11/14 00:10:15;;;;;;;14.73;3.70;;;11.40;99.90;;;;;;5059044;28;20545;-73
2023/11/14 00:12:40;;;;;;;11.07;3.57;;;11.40;99.90;;;;;;5073080;28;20420;-72
2023/11/14 00:15:07;;;;;;;15.77;3.87;;;11.40;99.90;;;;;;5056980;28;20896;-73
2023/11/14 00:17:33;;;;;;;15.20;3.97;;;11.50;99.90;;;;;;5057641;28;20201;-74
2023/11/14 00:19:58;;;;;;;14.33;4.03;;;11.50;99.90;;;;;;5057718;28;20449;-73
2023/11/14 00:22:24;;;;;;;12.03;3.80;;;11.50;99.90;;;;;;5058610;28;20667;-71
2023/11/14 00:24:50;;;;;;;21.07;6.70;;;11.50;99.90;;;;;;5057527;28;20243;-74
2023/11/14 00:27:17;;;;;;;19.60;4.40;;;11.50;99.90;;;;;;5057229;28;20213;-72
2023/11/14 00:29:43;;;;;;;9.03;3.37;;;11.50;99.90;;;;;;5058622;28;20644;-73
2023/11/14 00:32:09;;;;;;;15.03;3.80;;;11.40;99.90;;;;;;5059467;28;20455;-74
2023/11/14 00:34:35;;;;;;;16.17;4.33;;;11.40;99.90;;;;;;5057977;28;20697;-74
2023/11/14 00:37:01;;;;;;;17.13;3.87;;;11.40;99.90;;;;;;5057714;28;20221;-73
2023/11/14 00:39:27;;;;;;;13.27;3.63;;;11.40;99.90;;;;;;5063587;28;20502;-74
2023/11/14 00:41:53;;;;;;;16.93;3.90;;;11.50;99.90;;;;;;5057330;28;20860;-73
2023/11/14 00:44:20;;;;;;;14.30;3.13;;;11.40;99.90;;;;;;5057686;28;20498;-73
2023/11/14 00:46:45;;;;;;;15.40;3.70;;;11.50;99.90;;;;;;5057208;28;20216;-72
2023/11/14 00:49:11;;;;;;;15.40;4.30;;;11.50;99.90;;;;;;5059359;28;20498;-73
2023/11/14 00:51:37;;;;;;;15.77;3.80;;;11.50;99.90;;;;;;5057120;28;20177;-73
2023/11/14 00:54:02;;;;;;;19.57;3.83;;;11.50;99.90;;;;;;5056532;28;20182;-74
2023/11/14 00:56:28;;;;;;;10.80;4.07;;;11.50;99.90;;;;;;5057775;28;20220;-73
2023/11/14 00:58:54;;;;;;;25.73;4.40;;;11.50;99.90;;;;;;5058171;28;20182;-72
2023/11/14 01:01:19;;;;;;;20.10;4.27;;;11.40;99.90;;;;;;5057219;28;20272;-73
2023/11/14 01:03:45;;;;;;;21.23;4.10;;;11.40;99.90;;;;;;5057961;28;20187;-72
2023/11/14 01:06:11;;;;;;;23.90;4.87;;;11.40;99.90;;;;;;5058282;28;20703;-73
2023/11/14 01:08:36;;;;;;;20.03;4.93;;;11.40;99.90;;;;;;5058075;28;20182;-72
2023/11/14 01:11:03;;;;;;;19.50;5.83;;;11.40;99.90;;;;;;5057108;28;20182;-74
2023/11/14 01:13:28;;;;;;;18.13;3.60;;;11.40;99.90;;;;;;5056760;28;20188;-73
2023/11/14 01:15:54;;;;;;;20.07;4.00;;;11.40;99.90;;;;;;5056901;28;20416;-73
2023/11/14 01:18:20;;;;;;;12.13;4.23;;;11.40;99.90;;;;;;5057615;28;20296;-73
2023/11/14 01:20:45;;;;;;;21.57;4.20;;;11.50;99.90;;;;;;5057414;28;20189;-73
2023/11/14 01:23:11;;;;;;;19.87;4.03;;;11.40;99.90;;;;;;5056090;28;20797;-73
2023/11/14 01:25:39;;;;;;;20.10;4.10;;;11.40;99.90;;;;;;5057193;28;20246;-73
2023/11/14 01:28:05;;;;;;;10.07;4.60;;;11.40;99.90;;;;;;5056877;28;20225;-74
2023/11/14 01:30:30;;;;;;;19.73;4.17;;;11.50;99.90;;;;;;5057571;28;20426;-73
2023/11/14 01:32:56;;;;;;;14.67;5.50;;;11.50;99.90;;;;;;5060276;28;20493;-73
2023/11/14 01:35:22;;;;;;;15.33;5.53;;;11.50;99.90;;;;;;5058805;28;20207;-74
2023/11/14 01:37:49;;;;;;;20.63;4.33;;;11.50;99.90;;;;;;5060897;28;20667;-73
2023/11/14 01:40:14;;;;;;;22.03;4.97;;;11.50;99.90;;;;;;5083750;22;20178;-67
2023/11/14 01:42:40;;;;;;;17.33;5.00;;;11.40;99.90;;;;;;5035333;28;20913;-70
2023/11/14 01:45:06;;;;;;;19.77;4.80;;;11.50;99.90;;;;;;5034936;28;20427;-67
2023/11/14 01:47:33;;;;;;;15.40;3.80;;;11.40;99.90;;;;;;5033693;28;21027;-67
2023/11/14 01:50:00;;;;;;;21.43;4.00;;;11.40;99.90;;;;;;5033809;28;20519;-68
2023/11/14 01:52:26;;;;;;;13.20;4.10;;;11.40;99.90;;;;;;5032671;28;20424;-67
2023/11/14 01:54:52;;;;;;;18.93;4.03;;;11.40;99.90;;;;;;5033412;28;20421;-68
2023/11/14 01:57:18;;;;;;;17.93;4.10;;;11.50;99.90;;;;;;5033495;28;20929;-67
2023/11/14 01:59:45;;;;;;;17.67;4.00;;;11.50;99.90;;;;;;5033534;28;20780;-67
2023/11/14 02:02:13;;;;;;;17.77;4.53;;;11.50;99.90;;;;;;5033469;28;20981;-67
2023/11/14 02:04:39;;;;;;;11.03;3.53;;;11.40;99.90;;;;;;5032531;28;20435;-67
2023/11/14 02:07:07;;;;;;;18.13;5.20;;;11.40;99.90;;;;;;5032321;28;20525;-67
2023/11/14 02:09:33;;;;;;;13.20;4.30;;;11.30;99.90;;;;;;5032124;28;20431;-67
2023/11/14 02:11:59;;;;;;;13.13;3.63;;;11.40;99.90;;;;;;5032820;28;20985;-67
2023/11/14 02:14:25;;;;;;;19.20;5.10;;;11.40;99.90;;;;;;5027961;28;20437;-67
2023/11/14 02:16:55;;;;;;;18.93;4.90;;;11.40;99.90;;;;;;5030578;28;20570;-68
2023/11/14 02:19:23;;;;;;;18.90;3.90;;;11.40;99.90;;;;;;5031069;28;20182;-68
2023/11/14 02:21:50;;;;;;;15.53;5.20;;;11.40;99.90;;;;;;5032575;28;20428;-67
2023/11/14 02:24:20;;;;;;;19.20;3.60;;;11.40;99.90;;;;;;5031537;28;20439;-68
2023/11/14 02:26:47;;;;;;;20.87;4.43;;;11.40;99.90;;;;;;5031984;28;20525;-67
2023/11/14 02:29:15;;;;;;;14.60;4.40;;;11.50;99.90;;;;;;5032125;28;20515;-67
2023/11/14 02:31:41;;;;;;;13.80;4.17;;;11.50;99.90;;;;;;5031955;28;20455;-68
2023/11/14 02:34:07;;;;;;;17.83;3.93;;;11.50;99.90;;;;;;5031551;28;20420;-68
2023/11/14 02:36:33;;;;;;;12.83;5.17;;;11.50;99.90;;;;;;5032637;28;20467;-67
2023/11/14 02:38:59;;;;;;;10.33;3.53;;;11.50;99.90;;;;;;5031400;28;20436;-68
2023/11/14 02:41:25;;;;;;;15.77;4.20;;;11.50;99.90;;;;;;5031643;28;20230;-67
2023/11/14 02:43:50;;;;;;;16.80;4.73;;;11.40;99.90;;;;;;5029871;28;20852;-67
2023/11/14 02:46:16;;;;;;;18.10;5.00;;;11.50;99.90;;;;;;5032353;28;20328;-67
2023/11/14 02:48:42;;;;;;;18.80;3.97;;;11.40;99.90;;;;;;5035108;28;20184;-67
2023/11/14 02:51:08;;;;;;;17.40;4.67;;;11.40;99.90;;;;;;5031868;28;20177;-67
2023/11/14 02:53:34;;;;;;;14.00;3.67;;;11.50;99.90;;;;;;5029821;28;20424;-67
2023/11/14 02:56:01;;;;;;;10.20;3.30;;;11.50;99.90;;;;;;5032227;28;20428;-67
2023/11/14 02:58:26;;;;;;;18.67;4.80;;;11.50;99.90;;;;;;5031527;28;20433;-67
2023/11/14 03:00:52;;;;;;;14.50;3.60;;;11.50;99.90;;;;;;5030561;28;20435;-67
2023/11/14 03:03:18;;;;;;;16.10;3.83;;;11.50;99.90;;;;;;5030763;28;20240;-68
2023/11/14 03:05:45;;;;;;;19.20;4.90;;;11.50;99.90;;;;;;5031229;28;20253;-67
2023/11/14 03:08:11;;;;;;;17.03;4.93;;;11.50;99.90;;;;;;5032578;28;20425;-67
2023/11/14 03:10:37;;;;;;;24.57;4.73;;;11.50;99.90;;;;;;5032438;28;20413;-67
2023/11/14 03:13:04;;;;;;;15.10;4.33;;;11.40;99.90;;;;;;5030100;28;20792;-67
2023/11/14 03:15:31;;;;;;;25.47;4.80;;;11.40;99.90;;;;;;5030821;28;20441;-67
2023/11/14 03:17:58;;;;;;;18.37;4.60;;;11.40;99.90;;;;;;5030214;28;20429;-67
2023/11/14 03:20:24;;;;;;;21.97;6.57;;;11.40;99.90;;;;;;5031075;28;20444;-67
2023/11/14 03:22:50;;;;;;;12.80;3.90;;;11.40;99.90;;;;;;5030450;28;20432;-67
2023/11/14 03:25:16;;;;;;;16.40;3.43;;;11.40;99.90;;;;;;5030760;28;20483;-67
2023/11/14 03:27:42;;;;;;;22.60;3.77;;;11.40;99.90;;;;;;5031161;28;20330;-67
2023/11/14 03:30:09;;;;;;;18.57;4.30;;;11.40;99.90;;;;;;5030739;28;20562;-67
2023/11/14 03:32:36;;;;;;;17.73;4.30;;;11.30;99.90;;;;;;5031680;28;20440;-67
2023/11/14 03:35:03;;;;;;;24.63;5.00;;;11.30;99.90;;;;;;5029340;28;20436;-67
2023/11/14 03:37:29;;;;;;;16.77;4.60;;;11.30;99.90;;;;;;5031470;28;21176;-67
2023/11/14 03:39:54;;;;;;;17.07;4.17;;;11.40;99.90;;;;;;5029964;28;20506;-67
2023/11/14 03:42:20;;;;;;;21.90;5.13;;;11.40;99.90;;;;;;5030515;28;20599;-67
2023/11/14 03:44:45;;;;;;;21.03;4.83;;;11.40;99.90;;;;;;5029856;28;20230;-67
2023/11/14 03:47:11;;;;;;;21.57;6.10;;;11.40;99.90;;;;;;5029908;28;20213;-67
2023/11/14 03:49:37;;;;;;;14.57;4.20;;;11.40;99.90;;;;;;5031524;28;20216;-67
2023/11/14 03:52:03;;;;;;;16.63;4.10;;;11.40;99.90;;;;;;5030025;28;20178;-67
2023/11/14 03:54:29;;;;;;;17.77;4.07;;;11.30;99.90;;;;;;5028885;28;20182;-67
2023/11/14 03:56:54;;;;;;;17.73;4.33;;;11.30;99.90;;;;;;5030363;28;21313;-67
2023/11/14 03:59:20;;;;;;;11.83;3.73;;;11.30;99.90;;;;;;5030147;28;20673;-67
2023/11/14 04:01:46;;;;;;;9.70;2.90;;;11.30;99.90;;;;;;5030902;28;20185;-67
2023/11/14 04:04:12;;;;;;;17.70;4.03;;;11.30;99.90;;;;;;5030100;28;20185;-67
2023/11/14 04:06:38;;;;;;;18.80;4.57;;;11.40;99.90;;;;;;5029862;28;20496;-67
2023/11/14 04:09:04;;;;;;;11.80;3.43;;;11.40;99.90;;;;;;5030000;28;20424;-67
2023/11/14 04:11:30;;;;;;;22.87;5.13;;;11.30;99.90;;;;;;5030263;28;20431;-67
2023/11/14 04:13:56;;;;;;;16.57;5.37;;;11.30;99.90;;;;;;5028472;28;20428;-67
2023/11/14 04:16:22;;;;;;;16.03;4.67;;;11.30;99.90;;;;;;5029050;28;20274;-67
2023/11/14 04:18:47;;;;;;;16.60;4.60;;;11.30;99.90;;;;;;5030610;28;20193;-67
2023/11/14 04:21:19;;;;;;;14.83;4.47;;;11.30;99.90;;;;;;5029830;28;20182;-67
2023/11/14 04:23:46;;;;;;;19.70;4.17;;;11.30;99.90;;;;;;5030353;28;20205;-68
2023/11/14 04:26:14;;;;;;;13.47;4.27;;;11.40;99.90;;;;;;5029663;28;20464;-67
2023/11/14 04:28:40;;;;;;;21.83;4.73;;;11.40;99.90;;;;;;5031908;28;20430;-67
2023/11/14 04:31:06;;;;;;;10.57;4.40;;;11.40;99.90;;;;;;5030857;28;20479;-67
2023/11/14 04:33:32;;;;;;;14.00;4.77;;;11.30;99.90;;;;;;5032117;28;20432;-68
2023/11/14 04:35:57;;;;;;;12.50;4.00;;;11.30;99.90;;;;;;5029115;28;20182;-66
2023/11/14 04:38:23;;;;;;;15.63;4.13;;;11.30;99.90;;;;;;5029487;28;20185;-67
2023/11/14 04:40:49;;;;;;;17.43;4.70;;;11.40;99.90;;;;;;5029982;28;20197;-67
2023/11/14 04:43:15;;;;;;;16.30;5.47;;;11.40;99.90;;;;;;5028296;28;20889;-68
2023/11/14 04:45:40;;;;;;;15.57;4.30;;;11.40;99.90;;;;;;5029716;28;20187;-67
2023/11/14 04:48:06;;;;;;;17.70;4.47;;;11.40;99.90;;;;;;5029000;28;20199;-67
2023/11/14 04:50:32;;;;;;;20.33;5.23;;;11.40;99.90;;;;;;5030045;28;20208;-68
2023/11/14 04:52:57;;;;;;;12.67;3.77;;;11.40;99.90;;;;;;5028882;28;20182;-67
2023/11/14 04:55:23;;;;;;;15.67;5.33;;;11.50;99.90;;;;;;5028541;28;20196;-67
2023/11/14 04:57:49;;;;;;;15.93;4.60;;;11.40;99.90;;;;;;5029939;28;20256;-67
2023/11/14 05:00:15;;;;;;;18.00;4.63;;;11.40;99.90;;;;;;5029169;28;20864;-67
2023/11/14 05:02:40;;;;;;;19.73;4.23;;;11.40;99.90;;;;;;5029443;28;20915;-67
2023/11/14 05:05:06;;;;;;;16.00;4.20;;;11.40;99.90;;;;;;5028395;28;20508;-67
2023/11/14 05:07:32;;;;;;;13.77;4.20;;;11.40;99.90;;;;;;5033180;28;20221;-67
2023/11/14 05:09:59;;;;;;;11.70;4.17;;;11.40;99.90;;;;;;5033449;28;20427;-67
2023/11/14 05:12:25;;;;;;;18.00;4.30;;;11.40;99.90;;;;;;5033211;28;20327;-68
2023/11/14 05:14:51;;;;;;;16.40;4.67;;;11.40;99.90;;;;;;5033084;28;20428;-67
2023/11/14 05:17:17;;;;;;;17.00;4.13;;;11.40;99.90;;;;;;5031597;28;20182;-67
2023/11/14 05:19:42;;;;;;;14.90;4.00;;;11.40;99.90;;;;;;5033911;28;20479;-67
2023/11/14 05:22:08;;;;;;;12.13;3.63;;;11.40;99.90;;;;;;5032434;28;20427;-67
2023/11/14 05:24:34;;;;;;;14.23;4.33;;;11.50;99.90;;;;;;5032847;28;20288;-67
2023/11/14 05:26:59;;;;;;;14.87;4.33;;;11.50;99.90;;;;;;5033004;28;20290;-67
2023/11/14 05:29:25;;;;;;;17.27;4.10;;;11.40;99.90;;;;;;5033310;28;20193;-66
2023/11/14 05:31:51;;;;;;;14.63;4.53;;;11.40;99.90;;;;;;5034274;28;20197;-67
2023/11/14 05:34:16;;;;;;;21.47;4.30;;;11.30;99.90;;;;;;5032065;28;20187;-67
2023/11/14 05:36:42;;;;;;;17.93;4.00;;;11.30;99.90;;;;;;5033434;28;20191;-67
2023/11/14 05:39:08;;;;;;;17.03;4.43;;;11.30;99.90;;;;;;5031978;28;20189;-67
2023/11/14 05:41:36;;;;;;;15.97;5.03;;;11.40;99.90;;;;;;5033363;28;20794;-67
2023/11/14 05:44:02;;;;;;;14.40;4.00;;;11.40;99.90;;;;;;5033390;28;20185;-67
2023/11/14 05:46:28;;;;;;;12.30;5.07;;;11.40;99.90;;;;;;5033296;28;20474;-67
2023/11/14 05:48:54;;;;;;;16.20;4.00;;;11.40;99.90;;;;;;5034628;28;20845;-67
2023/11/14 05:51:20;;;;;;;17.67;4.10;;;11.40;99.90;;;;;;5032817;28;20230;-67
2023/11/14 05:53:46;;;;;;;10.97;4.00;;;11.40;99.90;;;;;;5033466;28;20787;-68
2023/11/14 05:56:12;;;;;;;20.87;5.77;;;11.40;99.90;;;;;;5033920;28;21440;-67
2023/11/14 05:58:38;;;;;;;16.90;4.47;;;11.40;99.90;;;;;;5031522;28;20441;-67
2023/11/14 06:01:05;;;;;;;24.17;4.90;;;11.40;99.90;;;;;;5033149;28;20187;-67
2023/11/14 06:03:31;;;;;;;17.23;4.57;;;11.40;99.90;;;;;;5031148;28;21134;-67
2023/11/14 06:05:56;;;;;;;18.30;4.03;;;11.50;99.90;;;;;;5032701;28;20473;-67
2023/11/14 06:08:22;;;;;;;12.77;4.30;;;11.50;99.90;;;;;;5031634;28;20686;-67
2023/11/14 06:10:48;;;;;;;17.27;4.37;;;11.50;99.90;;;;;;5032685;28;20561;-67
2023/11/14 06:13:13;;;;;;;12.80;4.27;;;11.50;99.90;;;;;;5031603;28;20220;-66
2023/11/14 06:15:39;;;;;;;15.27;4.47;;;11.50;99.90;;;;;;5030678;28;20280;-66
2023/11/14 06:18:05;;;;;;;17.37;3.93;;;11.50;99.90;;;;;;5032589;28;20205;-66
2023/11/14 06:20:32;;;;;;;17.53;5.20;;;11.50;99.90;;;;;;5032253;28;20420;-67
2023/11/14 06:22:58;;;;;;;15.13;3.77;;;11.50;99.90;;;;;;5032065;28;20436;-66
2023/11/14 06:25:23;;;;;;;16.20;4.47;;;11.50;99.90;;;;;;5031646;28;20534;-67
2023/11/14 06:27:49;;;;;;;17.00;5.60;;;11.50;99.90;;;;;;5032186;28;20300;-67
2023/11/14 06:30:16;;;;;;;14.37;4.30;;;11.50;99.90;;;;;;5032417;28;20189;-67
2023/11/14 06:32:42;;;;;;;19.73;9.23;;;11.50;99.90;;;;;;5032077;28;20188;-66
2023/11/14 06:35:07;;;;;;;18.73;5.87;;;11.50;99.90;;;;;;5032093;28;20425;-66
2023/11/14 06:37:35;;;;;;;13.90;3.90;;;11.60;99.90;;;;;;5031793;28;20174;-66
2023/11/14 06:40:01;;;;;;;18.70;4.37;;;11.60;99.90;;;;;;5032153;28;20189;-67
2023/11/14 06:42:26;;;;;;;17.73;4.77;;;11.50;99.90;;;;;;5030651;28;20447;-67
2023/11/14 06:44:52;;;;;;;13.37;4.00;;;11.50;99.90;;;;;;5032552;28;20202;-66
2023/11/14 06:47:18;;;;;;;14.50;4.00;;;11.60;99.90;;;;;;5031844;28;20213;-66
2023/11/14 06:49:44;;;;;;;10.43;4.63;;;11.50;99.90;;;;;;5031938;28;20222;-67
2023/11/14 06:52:12;;;;;;;13.87;3.53;;;11.50;99.90;;;;;;5031400;28;20181;-67
2023/11/14 06:54:38;;;;;;;16.97;4.63;;;11.50;99.90;;;;;;5030883;28;20433;-67
2023/11/14 06:57:09;;;;;;;22.13;4.87;;;11.50;99.90;;;;;;5031426;28;20424;-67
2023/11/14 06:59:35;;;;;;;19.43;4.50;;;11.60;99.90;;;;;;5031946;28;20189;-67
2023/11/14 07:02:05;;;;;;;16.53;3.93;;;11.60;99.90;;;;;;5031756;28;20435;-66
2023/11/14 07:04:31;;;;;;;18.37;4.10;;;11.60;99.90;;;;;;5030194;28;20632;-67
2023/11/14 07:06:57;;;;;;;21.13;4.63;;;11.60;99.90;;;;;;5030342;28;20532;-67
2023/11/14 07:09:25;;;;;;;14.03;3.50;;;11.60;99.90;;;;;;5030654;28;20432;-67
2023/11/14 07:11:51;;;;;;;19.23;3.97;;;11.60;99.90;;;;;;5029989;28;20662;-67
2023/11/14 07:14:19;;;;;;;26.70;5.43;;;11.60;99.90;;;;;;5030060;28;20445;-67
2023/11/14 07:16:47;;;;;;;21.70;5.70;;;11.60;99.90;;;;;;5027851;28;21620;-67
2023/11/14 07:19:13;;;;;;;18.93;3.90;;;11.60;99.90;;;;;;5030693;28;20431;-67
2023/11/14 07:21:39;;;;;;;16.07;4.83;;;11.70;99.90;;;;;;5029525;28;20436;-67
2023/11/14 07:24:05;;;;;;;14.03;3.83;;;11.70;99.90;;;;;;5028437;28;20193;-67
2023/11/14 07:26:31;;;;;;;23.23;4.83;;;11.60;99.90;;;;;;5030768;28;20249;-67
2023/11/14 07:28:57;;;;;;;17.43;4.73;;;11.60;99.90;;;;;;5032825;28;20890;-67
2023/11/14 07:31:22;;;;;;;17.43;3.80;;;11.70;99.90;;;;;;5033447;28;20733;-67
2023/11/14 07:33:48;;;;;;;17.83;4.30;;;11.70;99.90;;;;;;5032848;28;20188;-67
2023/11/14 07:36:14;;;;;;;25.33;4.20;;;11.60;99.90;;;;;;5034602;28;20190;-68
2023/11/14 07:38:40;;;;;;;20.20;5.10;;;11.70;99.90;;;;;;5032833;28;20194;-68
2023/11/14 07:41:10;;;;;;;20.07;5.73;;;11.70;99.90;;;;;;5030571;28;20197;-67
2023/11/14 07:43:37;;;;;;;10.40;3.93;;;11.70;99.90;;;;;;5031113;28;20292;-68
2023/11/14 07:46:04;;;;;;;19.47;6.33;;;11.70;99.90;;;;;;5030262;28;20579;-68
2023/11/14 07:48:30;;;;;;;19.20;5.33;;;11.60;99.90;;;;;;5030698;28;20490;-68
2023/11/14 07:50:57;;;;;;;16.67;4.73;;;11.60;99.90;;;;;;5030827;28;20508;-68
2023/11/14 07:53:24;;;;;;;22.90;5.30;;;11.60;99.90;;;;;;5030215;28;20820;-68
2023/11/14 07:55:49;;;;;;;15.10;4.93;;;11.70;99.90;;;;;;5030885;28;20420;-68
2023/11/14 07:58:15;;;;;;;16.17;4.87;;;11.70;99.90;;;;;;5030067;28;20187;-68
2023/11/14 08:00:41;;;;;;;13.40;4.40;;;11.70;99.90;;;;;;5032517;28;20252;-68
2023/11/14 08:03:10;;;;;;;13.37;3.67;;;11.80;99.90;;;;;;5030754;28;20255;-68
2023/11/14 08:05:40;;;;;;;12.57;3.87;;;11.80;99.90;;;;;;5030261;28;20475;-68
2023/11/14 08:08:10;;;;;;;11.97;4.57;;;11.90;99.90;;;;;;5030121;28;20495;-68
2023/11/14 08:10:38;;;;;;;11.43;3.97;;;11.90;99.90;;;;;;5029889;28;20432;-66
2023/11/14 08:13:05;;;;;;;15.03;3.90;;;11.90;99.90;;;;;;5029544;28;20476;-67
2023/11/14 08:15:31;;;;;;;15.97;3.90;;;11.90;99.90;;;;;;5029055;28;20436;-67
2023/11/14 08:17:56;;;;;;;15.50;4.93;;;12.00;99.90;;;;;;5029891;28;20428;-67
2023/11/14 08:20:22;;;;;;;14.20;3.93;;;11.90;99.90;;;;;;5030199;28;20972;-67
2023/11/14 08:22:50;;;;;;;18.13;4.07;;;11.90;99.90;;;;;;5029323;28;20185;-67
2023/11/14 08:25:16;;;;;;;20.17;6.00;;;11.90;99.90;;;;;;5029772;28;20740;-67
2023/11/14 08:27:45;;;;;;;19.80;4.80;;;11.90;99.90;;;;;;5029646;28;20475;-67
2023/11/14 08:30:12;;;;;;;13.27;4.77;;;11.90;99.90;;;;;;5029987;28;20436;-67
2023/11/14 08:32:39;;;;;;;19.80;4.10;;;12.00;99.90;;;;;;5030063;28;20485;-67
2023/11/14 08:35:06;;;;;;;11.13;3.90;;;12.10;99.90;;;;;;5028855;28;20424;-67
2023/11/14 08:37:32;;;;;;;16.40;4.57;;;12.10;99.90;;;;;;5030817;28;20429;-67
2023/11/14 08:39:58;;;;;;;15.70;4.77;;;12.10;99.90;;;;;;5029197;28;20474;-67
2023/11/14 08:42:24;;;;;;;9.60;3.53;;;12.10;99.90;;;;;;5028984;28;20216;-67
2023/11/14 08:44:50;;;;;;;14.97;3.80;;;12.10;99.90;;;;;;5028605;28;20190;-67
2023/11/14 08:47:16;;;;;;;14.53;4.40;;;12.20;99.90;;;;;;5030726;28;20993;-67
2023/11/14 08:49:42;;;;;;;15.00;3.70;;;12.10;99.90;;;;;;5030016;28;20428;-67
2023/11/14 08:52:07;;;;;;;13.77;3.20;;;12.10;99.90;;;;;;5029660;28;20432;-67
2023/11/14 08:54:33;;;;;;;13.47;4.73;;;12.10;99.90;;;;;;5029250;28;20182;-67
2023/11/14 08:56:59;;;;;;;15.87;3.90;;;12.10;99.90;;;;;;5028437;28;20210;-67
2023/11/14 08:59:25;;;;;;;12.30;3.50;;;12.10;99.90;;;;;;5030316;28;21216;-67
2023/11/14 09:01:51;;;;;;;13.00;3.70;;;12.20;99.90;;;;;;5029344;28;20190;-67
2023/11/14 09:04:18;;;;;;;17.63;5.43;;;12.20;99.90;;;;;;5028755;28;20198;-67
2023/11/14 09:06:44;;;;;;;7.40;3.77;;;12.20;99.90;;;;;;5028870;28;20468;-67
2023/11/14 09:09:10;;;;;;;13.37;3.50;;;12.10;99.90;;;;;;5029574;28;20430;-67
2023/11/14 09:11:35;;;;;;;12.07;3.87;;;12.10;99.90;;;;;;5029073;28;20443;-67
2023/11/14 09:14:02;;;;;;;14.40;6.60;;;12.10;99.90;;;;;;5027052;28;20192;-66
2023/11/14 09:16:27;;;;;;;13.23;3.80;;;12.10;99.90;;;;;;5026992;28;20414;-67
2023/11/14 09:18:54;;;;;;;8.97;3.87;;;12.10;99.90;;;;;;5028623;28;20436;-67
2023/11/14 09:21:23;;;;;;;12.37;3.20;;;12.10;99.90;;;;;;5028988;28;20437;-67
2023/11/14 09:23:48;;;;;;;13.70;4.73;;;12.10;99.90;;;;;;5027833;28;20428;-67
2023/11/14 09:26:14;;;;;;;14.87;4.30;;;12.20;99.90;;;;;;5027961;28;20538;-67
2023/11/14 09:28:40;;;;;;;13.73;4.20;;;12.20;99.90;;;;;;5028488;28;20278;-67
2023/11/14 09:31:07;;;;;;;9.80;2.90;;;12.20;99.90;;;;;;5029892;28;20186;-67
2023/11/14 09:33:33;;;;;;;15.27;4.80;;;12.30;99.90;;;;;;5028001;28;20193;-67
2023/11/14 09:35:59;;;;;;;17.87;4.17;;;12.30;99.90;;;;;;5028453;28;20429;-67
2023/11/14 09:38:24;;;;;;;12.50;3.37;;;12.30;99.90;;;;;;5029231;28;20436;-67
2023/11/14 09:40:51;;;;;;;14.27;3.80;;;12.30;99.90;;;;;;5027708;28;20202;-67
2023/11/14 09:43:26;;;;;;;14.77;3.87;;;12.40;99.90;;;;;;5028002;28;20282;-67
2023/11/14 09:45:52;;;;;;;10.87;3.53;;;12.40;99.90;;;;;;5027050;28;20908;-67
2023/11/14 09:48:18;;;;;;;14.40;4.97;;;12.40;99.90;;;;;;5028815;28;20421;-67
2023/11/14 09:50:48;;;;;;;10.50;3.43;;;12.50;99.90;;;;;;5029156;28;20432;-67
2023/11/14 09:53:14;;;;;;;18.00;3.50;;;12.50;99.90;;;;;;5030168;28;20423;-67
2023/11/14 09:55:40;;;;;;;9.27;3.47;;;12.50;99.90;;;;;;5032971;28;21177;-67
2023/11/14 09:58:06;;;;;;;14.97;3.60;;;12.50;99.90;;;;;;5031846;28;20428;-67
2023/11/14 10:00:33;;;;;;;13.60;3.80;;;12.50;99.90;;;;;;5033656;28;20876;-67
2023/11/14 10:03:03;;;;;;;10.40;4.77;;;12.50;99.90;;;;;;5031596;28;20436;-67
2023/11/14 10:05:32;;;;;;;13.53;3.20;;;12.50;99.90;;;;;;5032009;28;20420;-67
2023/11/14 10:07:59;;;;;;;15.10;4.30;;;12.60;99.90;;;;;;5033143;28;20905;-67
2023/11/14 10:10:24;;;;;;;14.83;4.20;;;12.60;99.90;;;;;;5032177;28;20939;-67
2023/11/14 10:12:52;;;;;;;13.73;3.60;;;12.60;99.90;;;;;;5031703;28;20532;-67
2023/11/14 10:15:31;;;;;;;10.80;3.43;;;12.60;99.90;;;;;;5030344;28;20811;-67
2023/11/14 10:17:57;;;;;;;11.93;3.67;;;12.60;99.90;;;;;;5032744;28;20987;-67
2023/11/14 10:20:24;;;;;;;17.00;4.13;;;12.60;99.90;;;;;;5031838;28;20487;-67
2023/11/14 10:22:54;;;;;;;15.90;4.60;;;12.60;99.90;;;;;;5032113;28;21244;-67
2023/11/14 10:25:25;;;;;;;13.43;4.23;;;12.60;99.90;;;;;;5031396;28;21217;-67
2023/11/14 10:27:59;;;;;;;16.87;4.03;;;12.60;99.90;;;;;;5033149;28;20514;-67
2023/11/14 10:30:47;;;;;;;15.77;3.33;;;12.60;99.90;;;;;;5031493;28;20515;-68
2023/11/14 10:33:13;;;;;;;12.90;3.70;;;12.60;99.90;;;;;;5052946;28;20930;-68
2023/11/14 10:35:45;;;;;;;14.07;3.30;;;12.60;99.90;;;;;;5032757;28;20425;-67
2023/11/14 10:38:20;;;;;;;14.30;3.63;;;12.70;99.90;;;;;;5031040;28;20814;-67
2023/11/14 10:40:47;;;;;;;11.53;3.90;;;12.60;99.90;;;;;;5032621;28;20462;-67
2023/11/14 10:43:29;;;;;;;15.47;3.70;;;12.60;99.90;;;;;;5030444;28;20445;-67
2023/11/14 10:45:55;;;;;;;16.00;3.80;;;12.60;99.90;;;;;;5031705;28;20439;-68
2023/11/14 10:48:24;;;;;;;11.50;3.47;;;12.60;99.90;;;;;;5030940;28;20835;-67
2023/11/14 10:50:51;;;;;;;10.13;4.00;;;12.60;99.90;;;;;;5032108;28;20440;-67
2023/11/14 10:53:17;;;;;;;10.70;2.90;;;12.60;99.90;;;;;;5030647;28;20455;-67
2023/11/14 10:55:44;;;;;;;13.00;3.47;;;12.70;99.90;;;;;;5032359;28;20438;-67
2023/11/14 10:58:12;;;;;;;13.70;3.60;;;12.60;99.90;;;;;;5032996;28;20520;-67
2023/11/14 11:00:39;;;;;;;11.53;3.67;;;12.60;99.90;;;;;;5032074;28;20428;-67
2023/11/14 11:03:05;;;;;;;10.63;3.47;;;12.60;99.90;;;;;;5030586;28;21205;-67
2023/11/14 11:05:32;;;;;;;14.70;3.80;;;12.60;99.90;;;;;;5030290;28;20422;-67
2023/11/14 11:08:02;;;;;;;14.20;5.00;;;12.50;99.90;;;;;;5032502;28;20581;-67
2023/11/14 11:10:36;;;;;;;14.87;4.07;;;12.50;99.90;;;;;;5031982;28;20485;-67
2023/11/14 11:13:09;;;;;;;11.17;3.63;;;12.60;99.90;;;;;;5031824;28;20431;-67
2023/11/14 11:15:46;;;;;;;14.37;3.40;;;12.50;99.90;;;;;;5029651;28;20447;-67
2023/11/14 11:18:12;;;;;;;10.23;3.60;;;12.60;99.90;;;;;;5031156;28;20432;-67
2023/11/14 11:20:38;;;;;;;7.67;3.37;;;12.60;99.90;;;;;;5031409;28;20421;-67
2023/11/14 11:23:04;;;;;;;6.57;3.30;;;12.60;99.90;;;;;;5030629;28;20806;-67
2023/11/14 11:25:31;;;;;;;13.80;4.60;;;12.60;99.90;;;;;;5030434;28;20436;-67
2023/11/14 11:28:32;;;;;;;15.17;3.47;;;12.60;99.90;;;;;;5031935;28;20551;-67
2023/11/14 11:31:23;;;;;;;13.23;3.33;;;12.60;99.90;;;;;;5033952;28;20422;-67
2023/11/14 11:33:50;;;;;;;9.80;3.10;;;12.70;99.90;;;;;;5031825;28;20942;-67
2023/11/14 11:36:22;;;;;;;14.10;3.47;;;12.70;99.90;;;;;;5032453;28;20460;-67
2023/11/14 11:39:07;;;;;;;11.70;4.17;;;12.70;99.90;;;;;;5032517;28;20473;-67
2023/11/14 11:41:38;;;;;;;12.00;2.93;;;12.70;99.90;;;;;;5030476;28;20459;-67
2023/11/14 11:44:08;;;;;;;13.27;4.00;;;12.70;99.90;;;;;;5030809;28;20440;-68
2023/11/14 11:46:38;;;;;;;9.80;2.90;;;12.70;99.90;;;;;;5030066;28;20582;-67
2023/11/14 11:49:10;;;;;;;9.10;3.37;;;12.70;99.90;;;;;;5031306;28;20952;-67
2023/11/14 11:51:43;;;;;;;6.90;2.90;;;12.70;99.90;;;;;;5030366;28;20425;-67
2023/11/14 11:54:27;;;;;;;7.13;2.70;;;12.70;99.90;;;;;;5035594;28;21013;-67
2023/11/14 11:57:05;;;;;;;9.93;2.53;;;12.70;99.90;;;;;;5031346;28;20424;-68
2023/11/14 11:59:40;;;;;;;8.83;2.60;;;12.60;99.90;;;;;;5031941;28;21375;-67
2023/11/14 12:02:14;;;;;;;8.03;2.57;;;12.60;99.90;;;;;;5030070;28;20427;-67
2023/11/14 12:04:42;;;;;;;12.03;3.53;;;12.50;99.90;;;;;;5029692;28;20564;-67
2023/11/14 12:07:08;;;;;;;6.70;2.80;;;12.50;99.90;;;;;;5030189;28;20483;-67
2023/11/14 12:09:35;;;;;;;8.70;2.70;;;12.50;99.90;;;;;;5030340;28;20460;-67
2023/11/14 12:12:02;;;;;;;11.87;3.20;;;12.50;99.90;;;;;;5029943;28;20441;-67
2023/11/14 12:14:28;;;;;;;9.27;2.90;;;12.50;99.90;;;;;;5029590;28;20436;-67
2023/11/14 12:16:55;;;;;;;10.13;3.30;;;12.50;99.90;;;;;;5028679;28;20490;-67
2023/11/14 12:19:21;;;;;;;12.43;3.50;;;12.60;99.90;;;;;;5030688;28;20441;-67
2023/11/14 12:21:46;;;;;;;14.80;3.30;;;12.50;99.90;;;;;;5030559;28;20427;-67
2023/11/14 12:24:12;;;;;;;20.77;4.50;;;12.50;99.90;;;;;;5028692;28;20814;-67
2023/11/14 12:26:39;;;;;;;15.73;3.83;;;12.50;99.90;;;;;;5029704;28;20910;-67
2023/11/14 12:29:09;;;;;;;16.50;3.67;;;12.40;99.90;;;;;;5030291;28;20468;-68
2023/11/14 12:31:36;;;;;;;10.53;3.17;;;12.50;99.90;;;;;;5030478;28;21062;-67
2023/11/14 12:34:04;;;;;;;10.40;4.20;;;12.50;99.90;;;;;;5029784;28;20421;-66
2023/11/14 12:36:30;;;;;;;13.50;4.60;;;12.50;99.90;;;;;;5030005;28;20914;-67